Time;durP1;ratioP1;P1;durP2;ratioP2;P2;SDS_P1;SDS_P2;PMS_P1;PMS_P2;Temp;Humidity;BMP_temperature;BMP_pressure;BME280_temperature;BME280_humidity;BME280_pressure;Samples;Min_cycle;Max_cycle;Signal;HPM_P1;HPM_P2
2022/12/06 00:01:33;;;;;;;15.77;9.30;;;3.40;99.90;;;;;;5056150;28;20204;-83
2022/12/06 00:04:05;;;;;;;14.50;10.03;;;3.40;99.90;;;;;;5056001;28;20177;-83
2022/12/06 00:06:35;;;;;;;14.87;9.30;;;3.40;99.90;;;;;;5038196;28;20162;-83
2022/12/06 00:09:00;;;;;;;12.73;8.77;;;3.40;99.90;;;;;;5055993;28;20265;-82
2022/12/06 00:11:29;;;;;;;12.93;9.13;;;3.40;99.90;;;;;;5037990;28;20286;-83
2022/12/06 00:13:58;;;;;;;13.20;8.80;;;3.40;99.90;;;;;;5037622;28;20181;-83
2022/12/06 00:16:25;;;;;;;13.07;9.27;;;3.40;99.90;;;;;;5038155;28;20198;-83
2022/12/06 00:18:51;;;;;;;12.47;8.93;;;3.30;99.90;;;;;;5037990;28;20705;-82
2022/12/06 00:21:22;;;;;;;12.83;9.43;;;3.30;99.90;;;;;;5037821;28;20203;-83
2022/12/06 00:23:50;;;;;;;13.03;9.43;;;3.40;99.90;;;;;;5037763;28;20197;-82
2022/12/06 00:26:17;;;;;;;13.47;8.47;;;3.40;99.90;;;;;;5038111;28;20256;-83
2022/12/06 00:28:43;;;;;;;12.27;8.90;;;3.40;99.90;;;;;;5055837;28;20180;-83
2022/12/06 00:31:13;;;;;;;14.27;9.13;;;3.40;99.90;;;;;;5055708;28;20185;-83
2022/12/06 00:33:39;;;;;;;12.73;9.53;;;3.40;99.90;;;;;;5037501;28;20247;-82
2022/12/06 00:36:08;;;;;;;12.53;8.93;;;3.40;99.90;;;;;;5037503;28;20186;-83
2022/12/06 00:38:35;;;;;;;11.60;8.60;;;3.40;99.90;;;;;;5055077;28;20219;-83
2022/12/06 00:41:06;;;;;;;15.03;9.70;;;3.40;99.90;;;;;;5055376;28;20228;-83
2022/12/06 00:43:33;;;;;;;14.20;8.80;;;3.40;99.90;;;;;;5037053;28;20207;-83
2022/12/06 00:45:59;;;;;;;13.27;8.97;;;3.40;99.90;;;;;;5037308;28;20178;-83
2022/12/06 00:48:24;;;;;;;12.90;9.17;;;3.40;99.90;;;;;;5037570;28;20185;-83
2022/12/06 00:50:50;;;;;;;13.27;9.00;;;3.40;99.90;;;;;;5055365;28;20544;-83
2022/12/06 00:53:16;;;;;;;12.27;8.87;;;3.40;99.90;;;;;;5067535;22;20228;-82
2022/12/06 00:55:42;;;;;;;11.43;8.13;;;3.40;99.90;;;;;;5053723;28;20181;-82
2022/12/06 00:58:09;;;;;;;11.57;8.07;;;3.40;99.90;;;;;;5054871;28;20176;-82
2022/12/06 01:00:34;;;;;;;13.77;8.00;;;3.40;99.90;;;;;;5053092;28;20233;-82
2022/12/06 01:03:00;;;;;;;14.47;9.00;;;3.40;99.90;;;;;;5050969;28;20223;-82
2022/12/06 01:05:26;;;;;;;10.37;8.07;;;3.40;99.90;;;;;;5033747;28;20593;-81
2022/12/06 01:07:52;;;;;;;11.80;8.17;;;3.50;99.90;;;;;;5033135;28;20264;-82
2022/12/06 01:10:18;;;;;;;10.47;7.30;;;3.50;99.90;;;;;;5034538;28;20265;-82
2022/12/06 01:12:43;;;;;;;11.27;7.53;;;3.50;99.90;;;;;;5034263;28;20569;-82
2022/12/06 01:15:09;;;;;;;11.10;7.67;;;3.50;99.90;;;;;;5033074;28;20174;-82
2022/12/06 01:17:35;;;;;;;12.00;7.87;;;3.50;99.90;;;;;;5034492;28;20180;-82
2022/12/06 01:20:01;;;;;;;9.70;6.70;;;3.50;99.90;;;;;;5034259;28;20223;-82
2022/12/06 01:22:27;;;;;;;7.43;5.40;;;3.50;99.90;;;;;;5032843;28;20194;-82
2022/12/06 01:24:53;;;;;;;7.77;5.60;;;3.40;99.90;;;;;;5034143;28;20674;-82
2022/12/06 01:27:18;;;;;;;7.27;5.10;;;3.50;99.90;;;;;;5032715;28;20380;-79
2022/12/06 01:29:44;;;;;;;7.60;5.30;;;3.50;99.90;;;;;;5032725;28;20236;-82
2022/12/06 01:32:09;;;;;;;7.23;5.10;;;3.50;99.90;;;;;;5034076;28;20186;-81
2022/12/06 01:34:35;;;;;;;6.80;5.03;;;3.50;99.90;;;;;;5032912;28;20200;-81
2022/12/06 01:37:01;;;;;;;6.20;4.33;;;3.50;99.90;;;;;;5032672;28;20185;-82
2022/12/06 01:39:26;;;;;;;6.83;4.37;;;3.50;99.90;;;;;;5032052;28;20211;-81
2022/12/06 01:41:52;;;;;;;4.97;3.60;;;3.50;99.90;;;;;;5034398;28;20259;-82
2022/12/06 01:44:42;;;;;;;4.10;3.50;;;3.50;99.90;;;;;;5039732;28;20197;-82
2022/12/06 01:47:15;;;;;;;5.83;3.70;;;3.60;99.90;;;;;;5033834;28;20196;-81
2022/12/06 01:49:44;;;;;;;4.13;3.63;;;3.50;99.90;;;;;;5040473;28;20629;-82
2022/12/06 01:52:12;;;;;;;3.87;3.10;;;3.50;99.90;;;;;;5032374;28;20582;-82
2022/12/06 01:54:39;;;;;;;4.40;3.50;;;3.60;99.90;;;;;;5032340;28;20567;-82
2022/12/06 01:57:07;;;;;;;4.67;3.60;;;3.60;99.90;;;;;;5036922;28;20186;-82
2022/12/06 01:59:33;;;;;;;4.20;3.10;;;3.50;99.90;;;;;;5045082;28;20177;-82
2022/12/06 02:01:59;;;;;;;6.70;4.00;;;3.50;99.90;;;;;;5033524;28;20224;-82
2022/12/06 02:04:27;;;;;;;4.53;3.37;;;3.50;99.90;;;;;;5033184;28;20169;-82
2022/12/06 02:06:54;;;;;;;3.90;3.17;;;3.40;99.90;;;;;;5032800;28;20184;-82
2022/12/06 02:09:21;;;;;;;3.80;3.10;;;3.40;99.90;;;;;;5033403;28;20711;-82
2022/12/06 02:11:47;;;;;;;4.40;3.43;;;3.50;99.90;;;;;;5031971;28;20268;-81
2022/12/06 02:14:16;;;;;;;5.17;3.80;;;3.50;99.90;;;;;;5031658;28;20336;-82
2022/12/06 02:17:16;;;;;;;5.20;3.60;;;3.50;99.90;;;;;;5032035;28;20215;-82
2022/12/06 02:19:53;;;;;;;6.40;4.10;;;3.50;99.90;;;;;;5032187;28;20177;-82
2022/12/06 02:22:40;;;;;;;4.90;3.90;;;3.40;99.90;;;;;;5033080;28;20255;-82
2022/12/06 02:25:27;;;;;;;6.50;4.30;;;3.30;99.90;;;;;;5031782;28;20177;-82
2022/12/06 02:28:17;;;;;;;5.37;3.73;;;3.30;99.90;;;;;;5032154;28;20182;-82
2022/12/06 02:31:17;;;;;;;5.63;3.90;;;3.30;99.90;;;;;;5032033;28;20166;-82
2022/12/06 02:34:06;;;;;;;5.10;3.77;;;3.30;99.90;;;;;;5031334;28;20213;-82
2022/12/06 02:36:43;;;;;;;5.40;3.70;;;3.30;99.90;;;;;;5018679;28;20649;-82
2022/12/06 02:39:14;;;;;;;4.33;3.70;;;3.30;99.90;;;;;;5031471;28;20208;-82
2022/12/06 02:41:59;;;;;;;5.43;4.07;;;3.30;99.90;;;;;;5031802;28;20734;-81
2022/12/06 02:44:31;;;;;;;4.17;3.30;;;3.30;99.90;;;;;;5031670;28;20186;-81
2022/12/06 02:46:58;;;;;;;4.40;3.47;;;3.30;99.90;;;;;;5031772;28;20187;-82
2022/12/06 02:49:30;;;;;;;5.03;3.90;;;3.20;99.90;;;;;;5032817;28;20187;-82
2022/12/06 02:51:56;;;;;;;4.23;3.70;;;3.30;99.90;;;;;;5032882;28;20665;-82
2022/12/06 02:54:25;;;;;;;4.53;3.80;;;3.20;99.90;;;;;;5030946;28;20299;-80
2022/12/06 02:56:51;;;;;;;4.33;3.67;;;3.20;99.90;;;;;;5044198;28;20189;-81
2022/12/06 02:59:16;;;;;;;4.17;3.33;;;3.10;99.90;;;;;;5044167;28;20177;-82
2022/12/06 03:01:48;;;;;;;4.10;3.30;;;3.10;99.90;;;;;;5051407;28;20213;-82
2022/12/06 03:04:16;;;;;;;4.07;3.30;;;3.20;99.90;;;;;;5051065;28;20193;-82
2022/12/06 03:07:01;;;;;;;4.07;3.43;;;3.20;99.90;;;;;;5051887;28;20260;-82
2022/12/06 03:09:57;;;;;;;4.97;3.57;;;3.10;99.90;;;;;;5052391;28;20168;-82
2022/12/06 03:12:38;;;;;;;3.87;3.17;;;3.10;99.90;;;;;;5050951;28;20196;-82
2022/12/06 03:15:18;;;;;;;4.53;3.53;;;3.10;99.90;;;;;;5051056;28;20176;-81
2022/12/06 03:17:58;;;;;;;4.70;3.90;;;3.00;99.90;;;;;;5050247;28;20190;-82
2022/12/06 03:20:41;;;;;;;3.97;3.40;;;3.00;99.90;;;;;;5050881;28;20663;-82
2022/12/06 03:23:11;;;;;;;4.23;3.30;;;3.00;99.90;;;;;;5051989;28;20192;-82
2022/12/06 03:25:37;;;;;;;4.63;3.00;;;3.00;99.90;;;;;;5043939;28;20171;-82
2022/12/06 03:28:05;;;;;;;4.50;3.10;;;2.90;99.90;;;;;;5042641;28;20191;-82
2022/12/06 03:30:33;;;;;;;3.43;2.73;;;3.00;99.90;;;;;;5045381;28;20265;-82
2022/12/06 03:32:59;;;;;;;3.30;2.53;;;3.00;99.90;;;;;;5051777;28;20609;-82
2022/12/06 03:35:30;;;;;;;2.43;2.23;;;3.00;99.90;;;;;;5051852;28;20258;-82
2022/12/06 03:38:02;;;;;;;2.53;1.97;;;3.00;99.90;;;;;;5050857;28;20179;-82
2022/12/06 03:40:31;;;;;;;2.13;1.93;;;2.90;99.90;;;;;;5051869;28;20759;-82
2022/12/06 03:42:57;;;;;;;2.20;2.00;;;3.00;99.90;;;;;;5050503;28;20280;-82
2022/12/06 03:45:28;;;;;;;2.40;2.13;;;2.90;99.90;;;;;;5050924;28;20267;-82
2022/12/06 03:48:03;;;;;;;2.70;2.13;;;2.90;99.90;;;;;;5052026;28;20229;-82
2022/12/06 03:50:38;;;;;;;2.20;1.90;;;2.90;99.90;;;;;;5052052;28;20181;-82
2022/12/06 03:53:04;;;;;;;2.10;1.90;;;2.90;99.90;;;;;;5051711;28;20213;-82
2022/12/06 03:55:29;;;;;;;2.10;1.90;;;2.90;99.90;;;;;;5050703;28;20374;-82
2022/12/06 03:57:55;;;;;;;2.27;2.07;;;2.90;99.90;;;;;;5051902;28;20180;-81
2022/12/06 04:00:20;;;;;;;2.30;2.10;;;2.80;99.90;;;;;;5050318;28;20257;-82
2022/12/06 04:02:46;;;;;;;2.43;2.00;;;2.80;99.90;;;;;;5050150;28;20280;-82
2022/12/06 04:05:12;;;;;;;2.27;2.07;;;2.80;99.90;;;;;;5050304;28;20695;-82
2022/12/06 04:07:38;;;;;;;2.53;2.33;;;2.80;99.90;;;;;;5051478;28;20232;-82
2022/12/06 04:10:04;;;;;;;2.50;1.97;;;2.90;99.90;;;;;;5050572;28;20177;-82
2022/12/06 04:15:18;;;;;;;2.17;1.97;;;2.90;99.90;;;;;;5052071;28;20244;-82
2022/12/06 04:23:02;;;;;;;2.60;2.40;;;2.80;99.90;;;;;;5052049;28;20225;-82
2022/12/06 04:23:16;;;;;;;2.60;2.20;;;2.80;99.90;;;;;;5050957;28;20228;-81
2022/12/06 04:25:41;;;;;;;2.30;2.07;;;2.80;99.90;;;;;;5050401;28;20183;-82
2022/12/06 04:39:04;;;;;;;2.77;2.50;;;2.90;99.90;;;;;;5051786;28;20195;-82
2022/12/06 04:44:13;;;;;;;3.00;2.50;;;2.80;99.90;;;;;;5034939;28;20212;-81
2022/12/06 04:46:39;;;;;;;2.63;2.43;;;2.80;99.90;;;;;;5033683;28;20686;-82
2022/12/06 04:49:05;;;;;;;3.00;2.70;;;2.80;99.90;;;;;;5033446;28;20557;-81
2022/12/06 04:51:31;;;;;;;3.07;2.77;;;2.90;99.90;;;;;;5034991;28;20644;-82
2022/12/06 04:53:56;;;;;;;3.40;2.70;;;2.80;99.90;;;;;;5034303;28;20584;-82
2022/12/06 04:56:22;;;;;;;3.20;2.70;;;2.80;99.90;;;;;;5033675;28;20260;-82
2022/12/06 04:58:47;;;;;;;3.20;2.90;;;2.80;99.90;;;;;;5033343;28;20172;-81
2022/12/06 05:01:13;;;;;;;3.37;3.07;;;2.80;99.90;;;;;;5034408;28;20547;-82
2022/12/06 05:03:39;;;;;;;3.90;3.20;;;2.80;99.90;;;;;;5032940;28;20221;-81
2022/12/06 05:06:05;;;;;;;3.60;3.27;;;2.80;99.90;;;;;;5033372;28;20179;-82
2022/12/06 05:08:30;;;;;;;4.17;3.70;;;2.80;99.90;;;;;;5034711;28;20204;-82
2022/12/06 05:10:56;;;;;;;4.23;3.50;;;2.80;99.90;;;;;;5033097;28;20212;-81
2022/12/06 05:13:22;;;;;;;4.10;3.60;;;2.80;99.90;;;;;;5033025;28;20205;-82
2022/12/06 05:15:56;;;;;;;4.63;3.10;;;2.70;99.90;;;;;;5033077;28;20181;-81
2022/12/06 05:18:23;;;;;;;4.23;3.43;;;2.70;99.90;;;;;;5033391;28;20204;-82
2022/12/06 05:20:49;;;;;;;5.87;3.70;;;2.80;99.90;;;;;;5032889;28;20212;-81
2022/12/06 05:23:15;;;;;;;4.97;4.10;;;2.80;99.90;;;;;;5033973;28;20196;-82
2022/12/06 05:25:40;;;;;;;3.87;3.47;;;2.70;99.90;;;;;;5033294;28;20188;-82
2022/12/06 05:28:07;;;;;;;4.53;3.93;;;2.70;99.90;;;;;;5032853;28;20210;-81
2022/12/06 05:30:33;;;;;;;4.33;3.87;;;2.70;99.90;;;;;;5032834;28;20178;-81
2022/12/06 05:32:59;;;;;;;4.40;3.73;;;2.60;99.90;;;;;;5035779;28;20213;-82
2022/12/06 05:35:25;;;;;;;4.97;4.00;;;2.60;99.90;;;;;;5045613;28;20181;-82
2022/12/06 05:37:50;;;;;;;5.37;4.20;;;2.60;99.90;;;;;;5052808;28;20184;-82
2022/12/06 05:40:16;;;;;;;5.53;4.20;;;2.60;99.90;;;;;;5051803;28;20174;-81
2022/12/06 05:42:42;;;;;;;4.77;4.00;;;2.60;99.90;;;;;;5053541;28;20279;-81
2022/12/06 05:45:08;;;;;;;5.67;4.40;;;2.60;99.90;;;;;;5052480;28;20183;-81
2022/12/06 05:47:34;;;;;;;4.93;4.43;;;2.60;99.90;;;;;;5053841;28;20174;-81
2022/12/06 05:50:00;;;;;;;4.73;3.87;;;2.60;99.90;;;;;;5052399;28;20186;-81
2022/12/06 05:52:26;;;;;;;6.17;4.70;;;2.60;99.90;;;;;;5053485;28;20268;-81
2022/12/06 05:54:51;;;;;;;5.83;5.10;;;2.60;99.90;;;;;;5052437;28;20591;-81
2022/12/06 05:57:17;;;;;;;6.53;5.10;;;2.60;99.90;;;;;;5052485;28;20175;-81
2022/12/06 05:59:43;;;;;;;5.13;4.63;;;2.60;99.90;;;;;;5053537;28;20187;-81
2022/12/06 06:02:08;;;;;;;5.97;5.20;;;2.60;99.90;;;;;;5052056;28;20199;-81
2022/12/06 06:04:34;;;;;;;6.83;5.17;;;2.60;99.90;;;;;;5053411;28;20198;-81
2022/12/06 06:07:00;;;;;;;7.70;5.37;;;2.50;99.90;;;;;;5052305;28;20180;-81
2022/12/06 06:09:26;;;;;;;4.70;3.90;;;2.50;99.90;;;;;;5052097;28;20557;-84
2022/12/06 06:11:52;;;;;;;6.23;3.90;;;2.50;99.90;;;;;;5052097;28;20227;-83
2022/12/06 06:14:18;;;;;;;5.77;4.30;;;2.50;99.90;;;;;;5052974;28;20200;-84
2022/12/06 06:16:44;;;;;;;5.30;3.97;;;2.50;99.90;;;;;;5051835;28;20195;-80
2022/12/06 06:19:10;;;;;;;5.53;4.53;;;2.50;99.90;;;;;;5052150;28;20598;-82
2022/12/06 06:21:35;;;;;;;5.03;4.07;;;2.50;99.90;;;;;;5053049;28;20215;-84
2022/12/06 06:24:01;;;;;;;4.43;3.83;;;2.50;99.90;;;;;;5051551;28;20194;-84
2022/12/06 06:26:26;;;;;;;5.77;4.60;;;2.50;99.90;;;;;;5051811;28;20178;-84
2022/12/06 06:28:52;;;;;;;5.73;4.87;;;2.50;99.90;;;;;;5051768;28;20207;-83
2022/12/06 06:31:18;;;;;;;5.40;4.70;;;2.40;99.90;;;;;;5051606;28;20648;-84
2022/12/06 06:33:43;;;;;;;6.07;4.00;;;2.40;99.90;;;;;;5052796;28;20212;-83
2022/12/06 06:36:09;;;;;;;8.83;5.10;;;2.40;99.90;;;;;;5051940;28;20180;-79
2022/12/06 06:38:35;;;;;;;7.43;5.83;;;2.70;99.90;;;;;;5052584;28;20200;-80
2022/12/06 06:41:02;;;;;;;5.70;4.63;;;3.20;99.90;;;;;;5052321;28;20206;-80
2022/12/06 06:43:29;;;;;;;5.53;4.27;;;3.40;99.90;;;;;;5051587;28;20191;-80
2022/12/06 06:45:57;;;;;;;5.93;4.60;;;3.50;99.90;;;;;;5051568;28;20177;-80
2022/12/06 06:48:25;;;;;;;5.10;4.03;;;3.80;99.90;;;;;;5052212;28;20180;-78
2022/12/06 06:50:50;;;;;;;4.67;4.10;;;3.90;99.90;;;;;;5051549;28;20658;-81
2022/12/06 06:53:18;;;;;;;5.30;4.20;;;3.70;99.90;;;;;;5097386;22;20231;-83
2022/12/06 06:55:44;;;;;;;4.90;4.20;;;3.40;99.90;;;;;;5072587;28;20205;-86
2022/12/06 06:58:11;;;;;;;4.33;3.83;;;3.10;99.90;;;;;;5072556;28;20192;-84
2022/12/06 07:00:36;;;;;;;4.87;4.10;;;3.00;99.90;;;;;;5054575;28;20206;-85
2022/12/06 07:03:02;;;;;;;4.77;4.00;;;2.80;99.90;;;;;;5054631;28;20199;-85
2022/12/06 07:05:29;;;;;;;4.73;3.70;;;2.80;99.90;;;;;;5072379;28;20163;-83
2022/12/06 07:07:56;;;;;;;4.73;3.80;;;2.70;99.90;;;;;;5054552;28;20265;-84
2022/12/06 07:10:24;;;;;;;4.80;3.93;;;2.60;99.90;;;;;;5054543;28;20178;-83
2022/12/06 07:12:50;;;;;;;4.67;4.17;;;2.50;99.90;;;;;;5072156;28;20182;-85
2022/12/06 07:15:16;;;;;;;6.20;4.17;;;2.60;99.90;;;;;;5054404;28;20180;-84
2022/12/06 07:17:41;;;;;;;4.70;4.10;;;2.50;99.90;;;;;;5054197;28;20173;-84
2022/12/06 07:20:07;;;;;;;5.23;4.27;;;2.50;99.90;;;;;;5072566;28;20225;-84
2022/12/06 07:22:33;;;;;;;5.10;4.20;;;2.50;99.90;;;;;;5053729;28;20205;-84
2022/12/06 07:24:58;;;;;;;5.27;4.40;;;2.50;99.90;;;;;;5054408;28;20183;-85
2022/12/06 07:27:24;;;;;;;4.63;4.13;;;2.50;99.90;;;;;;5054636;28;20601;-84
2022/12/06 07:29:49;;;;;;;4.10;3.70;;;2.50;99.90;;;;;;5072301;28;20248;-85
2022/12/06 07:32:15;;;;;;;4.87;4.37;;;2.50;99.90;;;;;;5054386;28;20196;-84
2022/12/06 07:34:41;;;;;;;5.10;4.57;;;2.50;99.90;;;;;;5054427;28;20194;-84
2022/12/06 07:37:07;;;;;;;5.33;4.47;;;2.50;99.90;;;;;;5054424;28;20228;-85
2022/12/06 07:39:32;;;;;;;5.07;4.10;;;2.40;99.90;;;;;;5068512;28;20255;-84
2022/12/06 07:45:00;;;;;;;5.90;4.53;;;2.50;99.90;;;;;;5080402;28;20251;-85
2022/12/06 07:47:26;;;;;;;5.70;4.50;;;2.50;99.90;;;;;;5056626;28;20260;-83
2022/12/06 07:49:54;;;;;;;4.60;4.20;;;2.50;99.90;;;;;;5073072;28;20185;-82
2022/12/06 07:52:20;;;;;;;5.40;4.40;;;2.40;99.90;;;;;;5066656;28;20184;-82
2022/12/06 07:54:46;;;;;;;5.23;4.43;;;2.50;99.90;;;;;;5073958;28;20207;-83
2022/12/06 07:57:12;;;;;;;5.53;4.37;;;2.50;99.90;;;;;;5074232;28;20199;-83
2022/12/06 07:59:37;;;;;;;4.90;4.07;;;2.40;99.90;;;;;;5092051;28;20175;-83
2022/12/06 08:02:03;;;;;;;5.27;4.33;;;2.50;99.90;;;;;;5073807;28;20209;-82
2022/12/06 08:04:28;;;;;;;4.97;4.00;;;2.50;99.90;;;;;;5082471;28;20194;-81
2022/12/06 08:06:55;;;;;;;5.20;3.97;;;2.50;99.90;;;;;;5057326;28;20176;-85
2022/12/06 08:09:21;;;;;;;5.50;4.63;;;2.50;99.90;;;;;;5075536;28;20174;-81
2022/12/06 08:11:46;;;;;;;5.97;4.67;;;2.50;99.90;;;;;;5042811;28;20180;-81
2022/12/06 08:14:12;;;;;;;5.13;4.57;;;2.40;99.90;;;;;;5037665;28;20207;-84
2022/12/06 08:16:40;;;;;;;6.47;4.57;;;2.40;99.90;;;;;;5038077;28;20202;-85
2022/12/06 08:19:05;;;;;;;4.60;4.10;;;2.40;99.90;;;;;;5055924;28;20173;-84
2022/12/06 08:21:31;;;;;;;5.97;4.87;;;2.40;99.90;;;;;;5037526;28;20206;-84
2022/12/06 08:23:56;;;;;;;5.47;4.80;;;2.40;99.90;;;;;;5056092;28;20195;-84
2022/12/06 08:26:22;;;;;;;5.23;4.67;;;2.40;99.90;;;;;;5037580;28;20179;-82
2022/12/06 08:28:48;;;;;;;9.80;6.43;;;2.40;99.90;;;;;;5037842;28;20175;-84
2022/12/06 08:31:20;;;;;;;15.87;8.40;;;2.30;99.90;;;;;;5037851;28;20175;-81
2022/12/06 08:33:46;;;;;;;7.27;5.30;;;2.40;99.90;;;;;;5055365;28;20570;-83
2022/12/06 08:36:18;;;;;;;6.27;5.37;;;2.40;99.90;;;;;;5037522;28;20185;-84
2022/12/06 08:38:45;;;;;;;6.27;5.57;;;2.40;99.90;;;;;;5055687;28;20187;-84
2022/12/06 08:43:57;;;;;;;5.93;4.80;;;2.40;99.90;;;;;;5055269;28;20684;-84
2022/12/06 08:46:22;;;;;;;5.70;4.90;;;2.40;99.90;;;;;;5037508;28;20166;-83
2022/12/06 08:48:49;;;;;;;4.77;4.23;;;2.40;99.90;;;;;;5037229;28;20559;-83
2022/12/06 08:51:15;;;;;;;9.20;5.60;;;2.50;99.90;;;;;;5036910;28;20174;-84
2022/12/06 08:53:40;;;;;;;5.70;4.43;;;2.50;99.90;;;;;;5054925;28;20219;-84
2022/12/06 08:56:06;;;;;;;7.77;5.80;;;2.40;99.90;;;;;;5054770;28;20192;-84
2022/12/06 08:58:32;;;;;;;6.00;4.90;;;2.40;99.90;;;;;;5037012;28;20257;-83
2022/12/06 09:00:57;;;;;;;12.30;10.20;;;2.40;99.90;;;;;;5055823;28;20216;-82
2022/12/06 09:03:24;;;;;;;11.40;8.57;;;2.40;99.90;;;;;;5056699;28;20203;-84
2022/12/06 09:05:50;;;;;;;5.83;4.73;;;2.30;99.90;;;;;;5057101;28;20248;-83
2022/12/06 09:08:15;;;;;;;5.83;4.93;;;2.40;99.90;;;;;;5056500;28;20238;-84
2022/12/06 09:10:42;;;;;;;9.67;7.20;;;2.30;99.90;;;;;;5057000;28;20188;-83
2022/12/06 09:13:08;;;;;;;22.37;14.63;;;2.30;99.90;;;;;;5056650;28;20193;-83
2022/12/06 09:15:33;;;;;;;7.50;5.60;;;2.30;99.90;;;;;;5074937;28;20181;-83
2022/12/06 09:17:59;;;;;;;7.00;5.30;;;2.40;99.90;;;;;;5056660;28;20666;-83
2022/12/06 09:20:25;;;;;;;6.50;4.60;;;2.30;99.90;;;;;;5074858;28;20174;-84
2022/12/06 09:22:51;;;;;;;6.00;5.13;;;2.30;99.90;;;;;;5074955;28;20204;-85
2022/12/06 09:25:16;;;;;;;6.53;4.70;;;2.30;99.90;;;;;;5056505;28;20179;-83
2022/12/06 09:27:42;;;;;;;5.33;4.43;;;2.40;99.90;;;;;;5074706;28;20181;-84
2022/12/06 09:30:09;;;;;;;4.90;4.40;;;2.40;99.90;;;;;;5074792;28;20179;-83
2022/12/06 09:32:34;;;;;;;4.93;4.43;;;2.40;99.90;;;;;;5056208;28;20200;-83
2022/12/06 09:35:00;;;;;;;5.00;4.50;;;2.50;99.90;;;;;;5074240;28;20644;-83
2022/12/06 09:37:26;;;;;;;5.30;4.17;;;2.50;99.90;;;;;;5074814;28;20185;-83
2022/12/06 09:39:57;;;;;;;5.93;4.90;;;2.50;99.90;;;;;;5056633;28;20640;-84
2022/12/06 09:42:53;;;;;;;5.83;4.90;;;2.50;99.90;;;;;;5056407;28;20209;-83
2022/12/06 09:45:46;;;;;;;6.77;4.40;;;2.50;99.90;;;;;;5054718;28;20169;-82
2022/12/06 09:48:54;;;;;;;7.83;4.40;;;2.50;99.90;;;;;;5055844;28;20178;-82
2022/12/06 09:51:34;;;;;;;5.63;4.60;;;2.50;99.90;;;;;;5073976;28;20186;-82
2022/12/06 09:54:19;;;;;;;4.87;4.20;;;2.50;99.90;;;;;;5073636;28;20211;-82
2022/12/06 09:56:53;;;;;;;5.10;4.20;;;2.50;99.90;;;;;;5074145;28;20209;-82
2022/12/06 09:59:33;;;;;;;5.90;4.60;;;2.50;99.90;;;;;;5074403;28;20620;-82
2022/12/06 10:02:13;;;;;;;5.10;4.33;;;2.50;99.90;;;;;;5074522;28;20194;-83
2022/12/06 10:05:09;;;;;;;5.93;4.63;;;2.50;99.90;;;;;;5073737;28;20299;-83
2022/12/06 10:07:54;;;;;;;6.20;4.57;;;2.50;99.90;;;;;;5073701;28;20166;-82
2022/12/06 10:10:56;;;;;;;5.33;4.50;;;2.50;99.90;;;;;;5074087;28;20169;-83
2022/12/06 10:13:30;;;;;;;5.17;4.43;;;2.50;99.90;;;;;;5070381;28;20624;-82
2022/12/06 10:16:21;;;;;;;5.77;4.80;;;2.50;99.90;;;;;;5074103;28;20183;-82
2022/12/06 10:18:58;;;;;;;5.47;4.30;;;2.60;99.90;;;;;;5055894;28;20605;-83
2022/12/06 10:21:54;;;;;;;5.33;4.77;;;2.60;99.90;;;;;;5074034;28;20656;-82
2022/12/06 10:24:29;;;;;;;5.10;4.40;;;2.60;99.90;;;;;;5074164;28;20664;-83
2022/12/06 10:27:21;;;;;;;5.50;4.57;;;2.60;99.90;;;;;;5073301;28;20167;-83
2022/12/06 10:29:57;;;;;;;5.33;4.60;;;2.60;99.90;;;;;;5051112;28;20202;-84
2022/12/06 10:32:29;;;;;;;5.63;4.53;;;2.70;99.90;;;;;;5046722;28;20174;-82
2022/12/06 10:34:57;;;;;;;5.00;4.10;;;2.60;99.90;;;;;;5060096;28;20188;-83
2022/12/06 10:37:33;;;;;;;6.00;5.07;;;2.70;99.90;;;;;;5076483;28;20179;-83
2022/12/06 10:40:10;;;;;;;6.57;5.73;;;2.70;99.90;;;;;;5093687;28;20264;-83
2022/12/06 10:42:41;;;;;;;6.97;5.50;;;2.70;99.90;;;;;;5093252;28;20195;-82
2022/12/06 10:48:38;;;;;;;5.40;4.33;;;2.70;99.90;;;;;;5028278;28;20242;-83
2022/12/06 10:51:11;;;;;;;5.93;4.80;;;2.70;99.90;;;;;;5031405;28;20191;-83
2022/12/06 10:53:43;;;;;;;5.53;4.70;;;2.70;99.90;;;;;;5072879;28;20249;-83
2022/12/06 10:56:17;;;;;;;6.07;5.40;;;2.70;99.90;;;;;;5073259;28;20171;-83
2022/12/06 10:58:58;;;;;;;6.43;5.47;;;2.70;99.90;;;;;;5055036;28;20629;-83
2022/12/06 11:01:28;;;;;;;7.40;5.97;;;2.70;99.90;;;;;;5054744;28;20202;-83
2022/12/06 11:03:59;;;;;;;7.40;6.63;;;2.60;99.90;;;;;;5056455;28;20202;-82
2022/12/06 11:06:44;;;;;;;5.17;4.60;;;2.60;99.90;;;;;;5093965;28;20296;-83
2022/12/06 11:09:12;;;;;;;6.03;5.17;;;2.60;99.90;;;;;;5093393;28;20175;-82
2022/12/06 11:11:39;;;;;;;5.20;4.70;;;2.70;99.90;;;;;;5076454;28;20336;-82
2022/12/06 11:14:17;;;;;;;6.23;4.73;;;2.60;99.90;;;;;;5083480;28;20202;-82
2022/12/06 11:17:23;;;;;;;5.80;5.00;;;2.70;99.90;;;;;;5074256;28;20179;-83
2022/12/06 11:20:22;;;;;;;6.47;5.10;;;2.70;99.90;;;;;;4956887;28;20176;-83
2022/12/06 11:23:05;;;;;;;9.30;5.97;;;2.60;99.90;;;;;;4951887;28;20219;-82
2022/12/06 11:25:50;;;;;;;5.80;4.80;;;2.70;99.90;;;;;;5036867;28;20214;-82
2022/12/06 11:28:40;;;;;;;7.00;4.57;;;2.70;99.90;;;;;;5055657;28;20201;-82
2022/12/06 11:31:17;;;;;;;6.40;5.20;;;2.70;99.90;;;;;;5055829;28;20176;-83
2022/12/06 11:33:43;;;;;;;6.50;5.13;;;2.80;99.90;;;;;;5074446;28;20202;-83
2022/12/06 11:36:09;;;;;;;5.40;4.90;;;2.80;99.90;;;;;;5055601;28;20179;-83
2022/12/06 11:38:39;;;;;;;5.57;4.43;;;2.80;99.90;;;;;;5055731;28;20188;-82
2022/12/06 11:41:08;;;;;;;6.43;4.73;;;2.80;99.90;;;;;;5060378;28;20207;-82
2022/12/06 11:43:35;;;;;;;5.70;4.37;;;2.80;99.90;;;;;;5059678;28;20195;-83
2022/12/06 11:46:04;;;;;;;6.00;4.73;;;2.80;99.90;;;;;;5077930;28;20669;-82
2022/12/06 11:48:33;;;;;;;4.70;4.10;;;2.80;99.90;;;;;;5059655;28;20266;-82
2022/12/06 11:50:59;;;;;;;5.03;4.07;;;2.80;99.90;;;;;;5077430;28;20245;-82
2022/12/06 11:53:43;;;;;;;4.93;4.20;;;2.80;99.90;;;;;;5058935;28;20266;-82
2022/12/06 11:56:19;;;;;;;6.23;4.80;;;2.80;99.90;;;;;;5059977;28;20179;-82
2022/12/06 11:59:15;;;;;;;6.97;4.90;;;2.80;99.90;;;;;;5060073;28;20269;-82
2022/12/06 12:01:49;;;;;;;6.47;4.83;;;2.80;99.90;;;;;;5059635;28;20204;-83
2022/12/06 12:04:33;;;;;;;10.43;7.57;;;2.80;99.90;;;;;;5077586;28;20278;-85
2022/12/06 12:07:07;;;;;;;11.33;7.70;;;4.40;99.90;;;;;;5060177;28;20157;-84
2022/12/06 12:09:48;;;;;;;5.10;4.03;;;6.20;99.90;;;;;;5059973;28;20545;-84
2022/12/06 12:12:18;;;;;;;5.67;4.67;;;5.80;99.90;;;;;;5078099;28;20153;-83
2022/12/06 12:14:50;;;;;;;5.00;4.23;;;5.70;99.90;;;;;;5060004;28;20246;-85
2022/12/06 12:17:22;;;;;;;4.73;4.00;;;5.70;99.90;;;;;;5077836;28;20161;-85
2022/12/06 12:20:16;;;;;;;4.33;3.93;;;5.90;99.90;;;;;;5052314;28;20186;-86
2022/12/06 12:22:42;;;;;;;4.90;3.90;;;6.10;99.90;;;;;;5054843;28;20287;-85
2022/12/06 12:25:29;;;;;;;6.13;3.77;;;6.30;99.90;;;;;;5076135;28;20257;-85
2022/12/06 12:27:57;;;;;;;5.30;4.00;;;5.50;99.90;;;;;;5076108;28;20170;-85
2022/12/06 12:30:31;;;;;;;4.30;3.83;;;5.30;99.90;;;;;;5058184;28;20171;-85
2022/12/06 12:33:06;;;;;;;4.13;3.67;;;5.10;99.90;;;;;;5057054;28;20187;-83
2022/12/06 12:35:51;;;;;;;4.93;3.70;;;4.70;99.90;;;;;;5038820;28;20173;-84
2022/12/06 12:38:25;;;;;;;5.30;4.13;;;4.10;99.90;;;;;;5056568;28;20225;-84
2022/12/06 12:41:02;;;;;;;3.93;3.10;;;3.70;99.90;;;;;;5056782;28;20200;-84
2022/12/06 12:43:33;;;;;;;6.07;4.33;;;3.50;99.90;;;;;;5038023;28;20200;-84
2022/12/06 12:46:10;;;;;;;4.80;3.90;;;3.40;99.90;;;;;;5039097;28;20169;-84
2022/12/06 12:48:38;;;;;;;5.17;3.93;;;3.20;99.90;;;;;;5056974;28;20172;-84
2022/12/06 12:51:47;;;;;;;5.83;4.53;;;3.10;99.90;;;;;;5038801;28;20235;-84
2022/12/06 12:54:33;;;;;;;4.77;4.10;;;3.10;99.90;;;;;;5049110;23;20280;-83
2022/12/06 12:57:01;;;;;;;5.73;4.20;;;3.00;99.90;;;;;;5035411;28;20166;-79
2022/12/06 12:59:34;;;;;;;6.83;4.43;;;3.00;99.90;;;;;;5034570;28;20246;-76
2022/12/06 13:02:18;;;;;;;6.27;4.03;;;3.00;99.90;;;;;;5034728;28;20213;-79
2022/12/06 13:04:51;;;;;;;17.37;10.03;;;3.00;99.90;;;;;;5034549;28;20198;-79
2022/12/06 13:07:22;;;;;;;9.60;6.80;;;3.00;99.90;;;;;;5016859;28;20257;-79
2022/12/06 13:10:02;;;;;;;10.30;6.07;;;3.00;99.90;;;;;;5034233;28;20624;-79
2022/12/06 13:12:32;;;;;;;15.67;10.27;;;3.00;99.90;;;;;;5016911;28;20183;-79
2022/12/06 13:15:21;;;;;;;23.63;13.60;;;3.10;99.90;;;;;;5016618;28;20257;-79
2022/12/06 13:17:52;;;;;;;17.73;11.20;;;3.00;99.90;;;;;;5033760;28;20234;-79
2022/12/06 13:20:25;;;;;;;15.87;10.40;;;3.00;99.90;;;;;;5016783;28;20181;-78
2022/12/06 13:22:55;;;;;;;8.67;6.93;;;3.00;99.90;;;;;;5016112;28;20180;-78
2022/12/06 13:25:21;;;;;;;8.93;5.50;;;3.60;99.90;;;;;;5033824;28;20186;-78
2022/12/06 13:27:51;;;;;;;8.93;6.00;;;4.30;99.90;;;;;;5016351;28;20698;-78
2022/12/06 13:30:21;;;;;;;7.10;4.93;;;4.80;99.90;;;;;;5016336;28;20162;-81
2022/12/06 13:32:50;;;;;;;5.40;4.30;;;5.30;99.90;;;;;;5033661;28;20185;-79
2022/12/06 13:35:37;;;;;;;5.13;4.27;;;5.70;99.90;;;;;;5034239;28;20661;-79
2022/12/06 13:38:22;;;;;;;5.47;4.53;;;5.90;99.90;;;;;;5016335;28;20197;-79
2022/12/06 13:40:50;;;;;;;5.47;4.47;;;5.80;99.90;;;;;;5033757;28;20198;-79
2022/12/06 13:43:22;;;;;;;5.37;4.60;;;5.20;99.90;;;;;;5034026;28;20191;-79